RPB1257 SKRG-SKBO
Flight info
| Callsign | RPB1257 |
|---|---|
| Flight time | 0h 26m |
| Altitude | 25000 |
| Route | ISVAT2B ISVAT ISVAT4E |
| Aircraft | B738/M-SDE2E3FGHIRWXY/LB1 |
Departure
| Time | 2026-04-25 01:20 |
|---|---|
| Airport | Jose Maria Córdova International Airport (SKRG) |
Arrival
| Time | 2026-04-25 01:46 |
|---|---|
| Airport | El Dorado International Airport (SKBO) |
| Time | Latitude | Longitude | Altitude | Speed | Heading |
|---|---|---|---|---|---|
| 2026-04-25 00:49 | 6.17062 | -75.42693 | 6996 ft | 0 kts | 292° |
| 2026-04-25 01:10 | 6.17060 | -75.42688 | 6999 ft | 2 kts | 284° |
| 2026-04-25 01:10 | 6.17059 | -75.42678 | 6999 ft | 2 kts | 266° |
| 2026-04-25 01:10 | 6.17061 | -75.42663 | 6999 ft | 2 kts | 255° |
| 2026-04-25 01:11 | 6.17066 | -75.42648 | 6998 ft | 2 kts | 241° |
| 2026-04-25 01:11 | 6.17072 | -75.42634 | 6998 ft | 2 kts | 253° |
| 2026-04-25 01:11 | 6.17080 | -75.42621 | 6998 ft | 2 kts | 227° |
| 2026-04-25 01:11 | 6.17091 | -75.42611 | 6997 ft | 2 kts | 213° |
| 2026-04-25 01:12 | 6.17113 | -75.42602 | 6998 ft | 2 kts | 187° |
| 2026-04-25 01:12 | 6.17118 | -75.42601 | 6998 ft | 0 kts | 181° |
| 2026-04-25 01:14 | 6.17117 | -75.42601 | 6998 ft | 0 kts | 181° |
| 2026-04-25 01:14 | 6.17082 | -75.42600 | 6997 ft | 9 kts | 174° |
| 2026-04-25 01:14 | 6.16993 | -75.42557 | 6994 ft | 18 kts | 134° |
| 2026-04-25 01:14 | 6.16847 | -75.42487 | 6985 ft | 26 kts | 172° |
| 2026-04-25 01:15 | 6.16651 | -75.42486 | 6975 ft | 29 kts | 179° |
| 2026-04-25 01:15 | 6.16442 | -75.42484 | 6971 ft | 29 kts | 180° |
| 2026-04-25 01:15 | 6.16234 | -75.42482 | 6969 ft | 29 kts | 179° |
| 2026-04-25 01:15 | 6.16029 | -75.42482 | 6966 ft | 29 kts | 181° |
| 2026-04-25 01:16 | 6.15824 | -75.42480 | 6963 ft | 29 kts | 179° |
| 2026-04-25 01:16 | 6.15627 | -75.42480 | 6965 ft | 27 kts | 180° |
| 2026-04-25 01:16 | 6.15435 | -75.42477 | 6963 ft | 27 kts | 179° |
| 2026-04-25 01:16 | 6.15249 | -75.42476 | 6962 ft | 26 kts | 179° |
| 2026-04-25 01:17 | 6.15061 | -75.42475 | 6958 ft | 27 kts | 180° |
| 2026-04-25 01:17 | 6.14958 | -75.42474 | 6954 ft | 13 kts | 180° |
| 2026-04-25 01:17 | 6.14888 | -75.42426 | 6951 ft | 9 kts | 89° |
| 2026-04-25 01:17 | 6.14888 | -75.42417 | 6951 ft | 0 kts | 89° |
| 2026-04-25 01:18 | 6.14888 | -75.42416 | 6951 ft | 0 kts | 89° |
| 2026-04-25 01:18 | 6.14889 | -75.42399 | 6951 ft | 5 kts | 88° |
| 2026-04-25 01:18 | 6.14907 | -75.42343 | 6951 ft | 11 kts | 40° |
| 2026-04-25 01:18 | 6.14989 | -75.42303 | 6954 ft | 12 kts | 7° |
| 2026-04-25 01:19 | 6.15014 | -75.42303 | 6955 ft | 0 kts | 359° |
| 2026-04-25 01:19 | 6.15015 | -75.42303 | 6955 ft | 0 kts | 359° |
| 2026-04-25 01:19 | 6.15156 | -75.42303 | 6960 ft | 55 kts | 0° |
| 2026-04-25 01:19 | 6.15792 | -75.42309 | 6967 ft | 125 kts | 360° |
| 2026-04-25 01:20 | 6.16883 | -75.42314 | 7056 ft | 177 kts | 0° |
| 2026-04-25 01:20 | 6.18101 | -75.42312 | 7821 ft | 178 kts | 0° |
| 2026-04-25 01:20 | 6.19373 | -75.42333 | 8313 ft | 186 kts | 359° |
| 2026-04-25 01:20 | 6.20721 | -75.42365 | 8552 ft | 202 kts | 359° |
| 2026-04-25 01:21 | 6.22152 | -75.42146 | 8889 ft | 213 kts | 25° |
| 2026-04-25 01:21 | 6.23323 | -75.41184 | 9215 ft | 226 kts | 54° |
| 2026-04-25 01:21 | 6.24017 | -75.39730 | 9507 ft | 242 kts | 74° |
| 2026-04-25 01:21 | 6.24111 | -75.38030 | 9929 ft | 251 kts | 102° |
| 2026-04-25 01:22 | 6.23282 | -75.36489 | 10394 ft | 257 kts | 134° |
| 2026-04-25 01:22 | 6.21891 | -75.35335 | 10495 ft | 261 kts | 144° |
| 2026-04-25 01:22 | 6.20382 | -75.34306 | 10485 ft | 255 kts | 146° |
| 2026-04-25 01:22 | 6.18932 | -75.33312 | 10488 ft | 256 kts | 144° |
| 2026-04-25 01:23 | 6.17466 | -75.32265 | 10487 ft | 258 kts | 143° |
| 2026-04-25 01:23 | 6.15822 | -75.31311 | 10500 ft | 293 kts | 156° |
| 2026-04-25 01:23 | 6.13800 | -75.30545 | 10486 ft | 316 kts | 160° |
| 2026-04-25 01:23 | 6.11718 | -75.29827 | 10484 ft | 314 kts | 160° |
| 2026-04-25 01:24 | 6.09677 | -75.29079 | 10485 ft | 313 kts | 159° |
| 2026-04-25 01:24 | 6.07638 | -75.28281 | 10490 ft | 314 kts | 158° |
| 2026-04-25 01:24 | 6.05624 | -75.27462 | 10495 ft | 314 kts | 158° |
| 2026-04-25 01:24 | 6.03693 | -75.26663 | 10496 ft | 315 kts | 158° |
| 2026-04-25 01:25 | 6.01745 | -75.25854 | 10500 ft | 317 kts | 157° |
| 2026-04-25 01:25 | 5.99707 | -75.25009 | 10505 ft | 317 kts | 157° |
| 2026-04-25 01:25 | 5.97679 | -75.24170 | 10499 ft | 315 kts | 157° |
| 2026-04-25 01:25 | 5.95635 | -75.23325 | 10495 ft | 315 kts | 157° |
| 2026-04-25 01:26 | 5.93621 | -75.22495 | 10489 ft | 316 kts | 157° |
| 2026-04-25 01:26 | 5.91592 | -75.21665 | 10609 ft | 313 kts | 157° |
| 2026-04-25 01:26 | 5.89574 | -75.20839 | 10949 ft | 316 kts | 158° |
| 2026-04-25 01:26 | 5.87602 | -75.20028 | 11291 ft | 319 kts | 157° |
| 2026-04-25 01:27 | 5.85549 | -75.19181 | 11636 ft | 322 kts | 158° |
| 2026-04-25 01:27 | 5.83458 | -75.18317 | 11978 ft | 324 kts | 158° |
| 2026-04-25 01:27 | 5.81404 | -75.17468 | 12314 ft | 323 kts | 158° |
| 2026-04-25 01:28 | 5.77184 | -75.15726 | 13002 ft | 326 kts | 158° |
| 2026-04-25 01:28 | 5.75079 | -75.14858 | 13344 ft | 328 kts | 158° |
| 2026-04-25 01:28 | 5.72942 | -75.13977 | 13683 ft | 332 kts | 158° |
| 2026-04-25 01:28 | 5.70748 | -75.13073 | 13478 ft | 343 kts | 158° |
| 2026-04-25 01:29 | 5.68552 | -75.12167 | 13248 ft | 336 kts | 158° |
| 2026-04-25 01:29 | 5.66404 | -75.11279 | 13197 ft | 335 kts | 158° |
| 2026-04-25 01:29 | 5.64242 | -75.10385 | 13173 ft | 338 kts | 158° |
| 2026-04-25 01:29 | 5.62045 | -75.09477 | 13153 ft | 338 kts | 158° |
| 2026-04-25 01:30 | 5.59866 | -75.08578 | 13140 ft | 339 kts | 158° |
| 2026-04-25 01:30 | 5.57696 | -75.07682 | 13135 ft | 339 kts | 158° |
| 2026-04-25 01:30 | 5.55507 | -75.06779 | 13113 ft | 337 kts | 158° |
| 2026-04-25 01:30 | 5.53330 | -75.05881 | 13104 ft | 338 kts | 158° |
| 2026-04-25 01:31 | 5.51128 | -75.04971 | 13094 ft | 341 kts | 158° |
| 2026-04-25 01:31 | 5.48947 | -75.04072 | 13296 ft | 336 kts | 158° |
| 2026-04-25 01:31 | 5.46778 | -75.03178 | 13748 ft | 343 kts | 158° |
| 2026-04-25 01:31 | 5.44538 | -75.02254 | 14242 ft | 344 kts | 158° |
| 2026-04-25 01:32 | 5.42302 | -75.01334 | 14922 ft | 345 kts | 158° |
| 2026-04-25 01:32 | 5.40096 | -75.00425 | 15621 ft | 346 kts | 158° |
| 2026-04-25 01:32 | 5.37861 | -74.99503 | 16320 ft | 346 kts | 158° |
| 2026-04-25 01:32 | 5.35635 | -74.98570 | 17006 ft | 346 kts | 157° |
| 2026-04-25 01:33 | 5.33437 | -74.97636 | 17686 ft | 345 kts | 157° |
| 2026-04-25 01:33 | 5.31217 | -74.96691 | 17957 ft | 352 kts | 157° |
| 2026-04-25 01:33 | 5.28944 | -74.95722 | 17155 ft | 368 kts | 157° |
| 2026-04-25 01:33 | 5.26694 | -74.94791 | 17560 ft | 330 kts | 158° |
| 2026-04-25 01:34 | 5.24623 | -74.93983 | 18234 ft | 326 kts | 159° |
| 2026-04-25 01:34 | 5.22361 | -74.93158 | 17461 ft | 354 kts | 161° |
| 2026-04-25 01:34 | 5.20034 | -74.92390 | 16992 ft | 353 kts | 162° |
| 2026-04-25 01:34 | 5.17668 | -74.91655 | 16274 ft | 361 kts | 164° |
| 2026-04-25 01:35 | 5.15241 | -74.90893 | 15690 ft | 359 kts | 158° |
| 2026-04-25 01:35 | 5.13127 | -74.89722 | 15933 ft | 345 kts | 143° |
| 2026-04-25 01:35 | 5.11471 | -74.88098 | 16980 ft | 327 kts | 128° |
| 2026-04-25 01:35 | 5.10240 | -74.86211 | 17632 ft | 326 kts | 116° |
| 2026-04-25 01:36 | 5.09433 | -74.84096 | 18138 ft | 329 kts | 104° |
| 2026-04-25 01:36 | 5.09000 | -74.81797 | 18323 ft | 342 kts | 97° |
| 2026-04-25 01:36 | 5.08512 | -74.79467 | 18431 ft | 351 kts | 105° |
| 2026-04-25 01:36 | 5.07750 | -74.77082 | 17664 ft | 367 kts | 108° |
| 2026-04-25 01:37 | 5.06906 | -74.74662 | 17131 ft | 365 kts | 109° |
| 2026-04-25 01:37 | 5.06003 | -74.72277 | 16705 ft | 362 kts | 110° |
| 2026-04-25 01:37 | 5.05055 | -74.69939 | 16223 ft | 360 kts | 111° |
| 2026-04-25 01:37 | 5.04096 | -74.67628 | 15737 ft | 358 kts | 111° |
| 2026-04-25 01:38 | 5.03142 | -74.65346 | 15274 ft | 356 kts | 112° |
| 2026-04-25 01:38 | 5.02193 | -74.63067 | 14812 ft | 354 kts | 111° |
| 2026-04-25 01:38 | 5.01246 | -74.60795 | 14373 ft | 352 kts | 111° |
| 2026-04-25 01:38 | 5.00312 | -74.58539 | 13922 ft | 351 kts | 111° |
| 2026-04-25 01:39 | 4.99372 | -74.56267 | 13469 ft | 349 kts | 111° |
| 2026-04-25 01:39 | 4.98453 | -74.54043 | 13188 ft | 340 kts | 111° |
| 2026-04-25 01:39 | 4.97577 | -74.51925 | 13199 ft | 324 kts | 111° |
| 2026-04-25 01:39 | 4.96725 | -74.49867 | 13196 ft | 313 kts | 111° |
| 2026-04-25 01:40 | 4.95901 | -74.47870 | 13186 ft | 311 kts | 111° |
| 2026-04-25 01:40 | 4.95075 | -74.45863 | 13210 ft | 312 kts | 111° |
| 2026-04-25 01:40 | 4.94240 | -74.43849 | 13246 ft | 313 kts | 111° |
| 2026-04-25 01:40 | 4.93363 | -74.41855 | 13301 ft | 314 kts | 117° |
| 2026-04-25 01:41 | 4.91986 | -74.40134 | 13314 ft | 315 kts | 137° |
| 2026-04-25 01:41 | 4.90305 | -74.38792 | 13320 ft | 310 kts | 142° |
| 2026-04-25 01:41 | 4.88593 | -74.37566 | 13346 ft | 292 kts | 143° |
| 2026-04-25 01:41 | 4.87108 | -74.36263 | 13359 ft | 272 kts | 130° |
| 2026-04-25 01:42 | 4.85964 | -74.34779 | 13366 ft | 265 kts | 124° |
| 2026-04-25 01:42 | 4.84834 | -74.33304 | 13374 ft | 267 kts | 128° |
| 2026-04-25 01:42 | 4.83664 | -74.31907 | 13388 ft | 256 kts | 129° |
| 2026-04-25 01:42 | 4.82568 | -74.30559 | 13390 ft | 243 kts | 127° |
| 2026-04-25 01:43 | 4.81520 | -74.29193 | 13116 ft | 248 kts | 125° |
| 2026-04-25 01:43 | 4.80488 | -74.27788 | 12551 ft | 257 kts | 125° |
| 2026-04-25 01:43 | 4.79423 | -74.26320 | 11923 ft | 265 kts | 125° |
| 2026-04-25 01:43 | 4.78357 | -74.24798 | 11241 ft | 268 kts | 122° |
| 2026-04-25 01:44 | 4.77376 | -74.23247 | 10550 ft | 259 kts | 121° |
| 2026-04-25 01:44 | 4.76363 | -74.21867 | 10174 ft | 239 kts | 127° |
| 2026-04-25 01:44 | 4.75380 | -74.20595 | 9895 ft | 218 kts | 125° |
| 2026-04-25 01:44 | 4.74521 | -74.19405 | 9525 ft | 207 kts | 123° |
| 2026-04-25 01:45 | 4.73684 | -74.18290 | 9191 ft | 198 kts | 128° |
| 2026-04-25 01:45 | 4.72876 | -74.17242 | 8943 ft | 182 kts | 124° |
| 2026-04-25 01:45 | 4.72121 | -74.16219 | 8641 ft | 177 kts | 125° |
| 2026-04-25 01:45 | 4.71378 | -74.15260 | 8441 ft | 175 kts | 126° |
| 2026-04-25 01:46 | 4.70682 | -74.14332 | 8367 ft | 145 kts | 126° |
| 2026-04-25 01:46 | 4.70212 | -74.13712 | 8366 ft | 83 kts | 128° |
| 2026-04-25 01:46 | 4.69967 | -74.13397 | 8364 ft | 28 kts | 133° |
| 2026-04-25 01:46 | 4.69822 | -74.13314 | 8366 ft | 17 kts | 168° |
| 2026-04-25 01:47 | 4.69742 | -74.13303 | 8367 ft | 6 kts | 173° |
| 2026-04-25 01:47 | 4.69712 | -74.13299 | 8368 ft | 2 kts | 174° |
| 2026-04-25 01:47 | 4.69700 | -74.13298 | 8368 ft | 1 kts | 174° |
| 2026-04-25 01:47 | 4.69696 | -74.13297 | 8368 ft | 0 kts | 174° |
| 2026-04-25 01:48 | 4.69695 | -74.13297 | 8368 ft | 0 kts | 174° |
| 2026-04-25 01:49 | 4.69689 | -74.13296 | 8368 ft | 4 kts | 178° |
| 2026-04-25 01:49 | 4.69679 | -74.13346 | 8369 ft | 13 kts | 301° |
| 2026-04-25 01:49 | 4.69756 | -74.13445 | 8367 ft | 21 kts | 307° |
| 2026-04-25 01:50 | 4.69854 | -74.13573 | 8367 ft | 25 kts | 308° |
| 2026-04-25 01:50 | 4.69960 | -74.13715 | 8367 ft | 25 kts | 307° |
| 2026-04-25 01:50 | 4.70064 | -74.13853 | 8369 ft | 24 kts | 307° |
| 2026-04-25 01:50 | 4.70166 | -74.13988 | 8371 ft | 23 kts | 307° |
| 2026-04-25 01:51 | 4.70270 | -74.14123 | 8369 ft | 24 kts | 307° |
| 2026-04-25 01:51 | 4.70372 | -74.14259 | 8368 ft | 20 kts | 306° |
| 2026-04-25 01:51 | 4.70388 | -74.14333 | 8367 ft | 10 kts | 229° |
| 2026-04-25 01:51 | 4.70331 | -74.14377 | 8367 ft | 10 kts | 216° |
| 2026-04-25 01:52 | 4.70272 | -74.14420 | 8368 ft | 10 kts | 217° |
| 2026-04-25 01:52 | 4.70218 | -74.14461 | 8369 ft | 9 kts | 215° |
| 2026-04-25 01:52 | 4.70166 | -74.14499 | 8370 ft | 8 kts | 217° |
| 2026-04-25 01:52 | 4.70119 | -74.14535 | 8371 ft | 8 kts | 218° |
| 2026-04-25 01:53 | 4.70075 | -74.14550 | 8372 ft | 7 kts | 148° |
| 2026-04-25 01:53 | 4.70036 | -74.14505 | 8372 ft | 9 kts | 128° |
| 2026-04-25 01:53 | 4.69994 | -74.14446 | 8373 ft | 9 kts | 124° |
| 2026-04-25 01:53 | 4.69984 | -74.14414 | 8373 ft | 1 kts | 44° |
| 2026-04-25 01:54 | 4.70007 | -74.14398 | 8373 ft | 4 kts | 37° |
| 2026-04-25 01:54 | 4.70027 | -74.14383 | 8373 ft | 0 kts | 37° |